createdAt,value
2022-11-30T00:01:17.373Z,42.37
2022-11-30T00:03:45.350Z,42.27
2022-11-30T00:06:15.038Z,42.64
2022-11-30T00:08:43.292Z,41.91
2022-11-30T00:11:18.500Z,41.97
2022-11-30T00:13:45.867Z,42.19
2022-11-30T00:16:13.418Z,42.35
2022-11-30T00:18:41.241Z,41.69
2022-11-30T00:21:12.876Z,41.77
2022-11-30T00:23:42.252Z,42.22
2022-11-30T00:26:12.353Z,41.89
2022-11-30T00:28:40.292Z,41.81
2022-11-30T00:31:11.852Z,41.75
2022-11-30T00:33:39.869Z,41.96
2022-11-30T00:36:16.018Z,42.48
2022-11-30T00:38:44.024Z,41.88
2022-11-30T00:41:11.947Z,41.83
2022-11-30T00:43:39.638Z,42.11
2022-11-30T00:46:09.648Z,42.04
2022-11-30T00:48:38.192Z,42.68
2022-11-30T00:51:06.711Z,42.62
2022-11-30T00:53:34.156Z,42.15
2022-11-30T00:56:01.577Z,42.47
2022-11-30T00:58:28.986Z,42.35
2022-11-30T01:00:56.491Z,42.79
2022-11-30T01:03:23.969Z,42.18
2022-11-30T01:05:51.713Z,43.04
2022-11-30T01:08:19.649Z,42.49
2022-11-30T01:10:49.730Z,42.97
2022-11-30T01:13:17.117Z,42.49
2022-11-30T01:15:44.852Z,42.46
2022-11-30T01:18:12.608Z,42.37
2022-11-30T01:20:43.826Z,42.63
2022-11-30T01:23:11.452Z,42.03
2022-11-30T01:25:39.312Z,42.20
2022-11-30T01:28:07.493Z,42.29
2022-11-30T01:30:34.964Z,42.12
2022-11-30T01:33:04.713Z,42.00
2022-11-30T01:35:32.197Z,42.44
2022-11-30T01:37:59.762Z,42.27
2022-11-30T01:40:27.228Z,42.38
2022-11-30T01:42:54.627Z,42.38
2022-11-30T01:45:22.145Z,42.44
2022-11-30T01:47:54.584Z,43.68
2022-11-30T01:50:28.070Z,43.24
2022-11-30T01:52:58.004Z,41.73
2022-11-30T01:55:34.257Z,41.85
2022-11-30T01:58:09.883Z,42.34
2022-11-30T02:00:37.307Z,41.64
2022-11-30T02:03:28.773Z,41.77
2022-11-30T02:05:57.073Z,42.02
2022-11-30T02:08:24.803Z,41.82
2022-11-30T02:11:00.514Z,42.39
2022-11-30T02:13:36.788Z,42.47
2022-11-30T02:16:07.314Z,42.30
2022-11-30T02:18:49.681Z,42.07
2022-11-30T02:21:32.065Z,42.09
2022-11-30T02:24:08.795Z,42.22
2022-11-30T02:27:17.997Z,43.08
2022-11-30T02:29:52.164Z,42.58
2022-11-30T02:32:26.236Z,43.18
2022-11-30T02:34:56.822Z,42.82
2022-11-30T02:37:26.179Z,43.03
2022-11-30T02:39:53.594Z,42.93
2022-11-30T02:42:20.985Z,43.78
2022-11-30T02:44:52.219Z,44.02
2022-11-30T02:47:34.849Z,46.26
2022-11-30T02:50:11.529Z,46.09
2022-11-30T02:52:39.679Z,45.01
2022-11-30T02:55:12.342Z,49.88
2022-11-30T02:57:39.827Z,48.56
2022-11-30T03:00:10.273Z,49.45
2022-11-30T03:02:39.069Z,47.47
2022-11-30T03:05:07.719Z,48.29
2022-11-30T03:07:36.405Z,47.43
2022-11-30T03:10:06.153Z,47.75
2022-11-30T03:12:33.678Z,47.35
2022-11-30T03:15:00.985Z,48.29
2022-11-30T03:17:28.474Z,47.88
2022-11-30T03:19:55.942Z,47.52
2022-11-30T03:22:23.923Z,48.18
2022-11-30T03:24:51.486Z,47.36
2022-11-30T03:27:19.156Z,46.05
2022-11-30T03:29:46.587Z,46.94
2022-11-30T03:32:13.943Z,50.27
2022-11-30T03:34:41.525Z,52.86
2022-11-30T03:37:08.886Z,55.02
2022-11-30T03:39:36.298Z,59.63
2022-11-30T03:42:03.876Z,60.91
2022-11-30T03:44:31.412Z,63.28
2022-11-30T03:46:58.844Z,64.20
2022-11-30T03:49:26.256Z,64.95
2022-11-30T03:51:53.701Z,65.42
2022-11-30T03:54:21.956Z,65.78
2022-11-30T03:56:49.363Z,67.72
2022-11-30T03:59:16.746Z,66.90
2022-11-30T04:01:44.223Z,67.96
2022-11-30T04:04:12.536Z,69.01
2022-11-30T04:06:40.923Z,69.62
2022-11-30T04:09:10.399Z,70.88
2022-11-30T04:11:37.899Z,70.46
2022-11-30T04:14:05.261Z,70.41
2022-11-30T04:16:32.721Z,69.11
2022-11-30T04:19:00.191Z,68.01
2022-11-30T04:21:27.622Z,66.41
2022-11-30T04:23:54.962Z,66.27
2022-11-30T04:26:22.344Z,66.27
2022-11-30T04:28:49.815Z,66.30
2022-11-30T04:31:17.352Z,66.17
2022-11-30T04:33:44.804Z,67.19
2022-11-30T04:36:20.060Z,67.16
2022-11-30T04:38:48.213Z,67.83
2022-11-30T04:41:15.680Z,67.21
2022-11-30T04:43:43.151Z,68.95
2022-11-30T04:46:10.983Z,69.88
2022-11-30T04:48:38.607Z,72.30
2022-11-30T04:51:08.034Z,72.43
2022-11-30T04:53:37.340Z,71.24
2022-11-30T04:56:07.193Z,69.69
2022-11-30T04:58:35.265Z,70.27
2022-11-30T05:01:02.630Z,68.65
2022-11-30T05:03:30.094Z,67.90
2022-11-30T05:05:57.541Z,66.89
2022-11-30T05:08:24.909Z,66.51
2022-11-30T05:10:53.836Z,63.55
2022-11-30T05:13:22.701Z,63.20
2022-11-30T05:15:50.380Z,62.25
2022-11-30T05:18:17.852Z,62.93
2022-11-30T05:20:53.163Z,61.54
2022-11-30T05:23:21.459Z,59.71
2022-11-30T05:25:49.354Z,59.43
2022-11-30T05:28:16.919Z,60.45
2022-11-30T05:30:44.815Z,58.51
2022-11-30T05:33:12.758Z,58.03
2022-11-30T05:35:40.223Z,58.98
2022-11-30T05:38:07.788Z,60.08
2022-11-30T05:40:35.439Z,58.58
2022-11-30T05:43:04.543Z,57.99
2022-11-30T05:45:32.106Z,56.91
2022-11-30T05:47:59.480Z,55.97
2022-11-30T05:50:26.871Z,56.24
2022-11-30T05:52:58.218Z,55.63
2022-11-30T05:55:25.599Z,56.82
2022-11-30T05:57:53.220Z,58.24
2022-11-30T06:00:21.595Z,58.51
2022-11-30T06:02:49.406Z,56.57
2022-11-30T06:05:17.018Z,58.84
2022-11-30T06:07:44.491Z,58.04
2022-11-30T06:10:12.451Z,55.54
2022-11-30T06:12:39.723Z,54.52
2022-11-30T06:15:08.258Z,54.79
2022-11-30T06:17:38.105Z,55.24
2022-11-30T06:20:07.148Z,53.62
2022-11-30T06:22:34.790Z,53.40
2022-11-30T06:25:02.200Z,53.82
2022-11-30T06:27:32.218Z,54.79
2022-11-30T06:29:59.718Z,52.48
2022-11-30T06:32:27.189Z,52.71
2022-11-30T06:34:54.537Z,50.95
2022-11-30T06:37:21.959Z,50.45
2022-11-30T06:42:37.934Z,49.69
2022-11-30T06:45:07.273Z,49.00
2022-11-30T06:47:34.705Z,47.77
2022-11-30T06:50:02.131Z,49.25
2022-11-30T06:52:33.565Z,49.64
2022-11-30T06:55:01.216Z,49.30
2022-11-30T06:57:29.472Z,49.42
2022-11-30T06:59:57.735Z,49.29
2022-11-30T07:02:25.361Z,49.04
2022-11-30T07:04:52.845Z,51.48
2022-11-30T07:07:20.319Z,52.67
2022-11-30T07:09:47.687Z,49.26
2022-11-30T07:12:15.012Z,50.57
2022-11-30T07:14:42.365Z,49.73
2022-11-30T07:17:09.744Z,49.95
2022-11-30T07:19:37.100Z,49.09
2022-11-30T07:22:04.611Z,46.98
2022-11-30T07:24:50.477Z,47.55
2022-11-30T07:27:17.975Z,48.20
2022-11-30T07:29:45.428Z,47.73
2022-11-30T07:32:12.864Z,46.49
2022-11-30T07:34:40.354Z,47.89
2022-11-30T07:37:07.745Z,46.35
2022-11-30T07:39:35.281Z,48.01
2022-11-30T07:42:02.717Z,46.93
2022-11-30T07:44:30.153Z,48.14
2022-11-30T07:46:57.601Z,46.32
2022-11-30T07:49:24.966Z,46.58
2022-11-30T07:51:52.361Z,47.72
2022-11-30T07:54:19.731Z,49.27
2022-11-30T07:56:47.072Z,48.75
2022-11-30T07:59:14.451Z,50.78
2022-11-30T08:01:41.935Z,49.47
2022-11-30T08:04:09.436Z,48.41
2022-11-30T08:06:36.933Z,51.41
2022-11-30T08:09:04.771Z,48.99
2022-11-30T08:11:35.095Z,49.33
2022-11-30T08:14:03.260Z,47.54
2022-11-30T08:16:34.894Z,47.80
2022-11-30T08:19:02.263Z,46.51
2022-11-30T08:21:29.783Z,45.91
2022-11-30T08:23:57.415Z,45.46
2022-11-30T08:26:31.096Z,45.03
2022-11-30T08:29:00.323Z,45.38
2022-11-30T08:31:31.250Z,47.51
2022-11-30T08:34:01.920Z,47.45
2022-11-30T08:36:30.888Z,46.38
2022-11-30T08:38:59.673Z,47.43
2022-11-30T08:41:27.611Z,46.28
2022-11-30T08:43:55.338Z,47.08
2022-11-30T08:49:21.361Z,46.00
2022-11-30T08:52:16.554Z,46.97
2022-11-30T08:54:40.400Z,45.12
2022-11-30T08:57:07.731Z,48.96
2022-11-30T08:59:35.139Z,50.00
2022-11-30T09:02:02.864Z,48.49
2022-11-30T09:04:30.409Z,48.70
2022-11-30T09:06:59.529Z,50.31
2022-11-30T09:09:27.253Z,48.25
2022-11-30T09:11:54.591Z,48.02
2022-11-30T09:14:22.029Z,46.65
2022-11-30T09:16:49.513Z,46.41
2022-11-30T09:19:16.900Z,47.47
2022-11-30T09:21:51.214Z,45.56
2022-11-30T09:24:19.502Z,46.17
2022-11-30T09:26:47.167Z,44.63
2022-11-30T09:29:14.598Z,44.77
2022-11-30T09:31:42.280Z,44.23
2022-11-30T09:34:11.607Z,44.25
2022-11-30T09:36:39.107Z,44.36
2022-11-30T09:39:06.956Z,43.38
2022-11-30T09:42:01.624Z,43.55
2022-11-30T09:44:41.922Z,43.50
2022-11-30T09:47:46.644Z,44.61
2022-11-30T09:50:21.476Z,43.21
2022-11-30T09:52:58.969Z,44.61
2022-11-30T09:55:33.211Z,45.04
2022-11-30T09:58:06.034Z,45.81
2022-11-30T10:00:35.435Z,44.54
2022-11-30T10:03:06.466Z,44.60
2022-11-30T10:05:48.204Z,45.37
2022-11-30T10:08:48.970Z,46.64
2022-11-30T10:11:36.601Z,47.37
2022-11-30T10:14:12.919Z,46.39
2022-11-30T10:16:59.066Z,44.47
2022-11-30T10:19:29.157Z,44.34
2022-11-30T10:22:19.025Z,43.97
2022-11-30T10:25:11.828Z,43.74
2022-11-30T10:27:54.011Z,43.52
2022-11-30T10:30:23.812Z,43.00
2022-11-30T10:32:56.719Z,44.11
2022-11-30T10:35:45.284Z,44.12
2022-11-30T10:38:28.835Z,45.24
2022-11-30T10:41:01.431Z,43.87
2022-11-30T10:43:38.966Z,45.01
2022-11-30T10:46:06.473Z,45.65
2022-11-30T10:48:40.965Z,46.78
2022-11-30T10:51:08.673Z,46.44
2022-11-30T10:53:37.232Z,48.75
2022-11-30T10:56:12.467Z,49.43
2022-11-30T10:58:52.217Z,46.98
2022-11-30T11:01:36.144Z,47.76
2022-11-30T11:04:13.098Z,48.79
2022-11-30T11:06:46.561Z,52.31
2022-11-30T11:09:27.785Z,50.70
2022-11-30T11:11:58.521Z,48.86
2022-11-30T11:14:30.415Z,49.66
2022-11-30T11:17:06.969Z,50.31
2022-11-30T11:19:41.053Z,50.76
2022-11-30T11:22:14.279Z,49.72
2022-11-30T11:24:42.010Z,47.87
2022-11-30T11:27:29.915Z,47.41
2022-11-30T11:30:18.204Z,48.17
2022-11-30T11:33:02.657Z,46.46
2022-11-30T11:35:39.290Z,46.35
2022-11-30T11:38:19.385Z,50.31
2022-11-30T11:40:56.702Z,49.14
2022-11-30T11:43:27.175Z,49.62
2022-11-30T11:45:57.578Z,49.07
2022-11-30T11:48:49.155Z,49.07
2022-11-30T11:51:39.883Z,48.60
2022-11-30T11:54:47.568Z,48.15
2022-11-30T11:57:17.586Z,47.45
2022-11-30T12:00:00.271Z,48.44
2022-11-30T12:02:49.261Z,48.01
2022-11-30T12:05:56.755Z,49.20
2022-11-30T12:09:28.484Z,48.64
2022-11-30T12:11:56.099Z,46.86
2022-11-30T12:14:26.513Z,46.50
2022-11-30T12:17:30.675Z,47.71
2022-11-30T12:20:11.859Z,46.73
2022-11-30T12:22:48.347Z,50.54
2022-11-30T12:25:25.943Z,47.87
2022-11-30T12:28:07.149Z,48.12
2022-11-30T12:30:53.157Z,47.81
2022-11-30T12:33:34.381Z,47.10
2022-11-30T12:36:20.381Z,46.21
2022-11-30T12:39:07.964Z,46.35
2022-11-30T12:41:52.136Z,46.41
2022-11-30T12:44:42.150Z,46.93
2022-11-30T12:47:17.213Z,46.63
2022-11-30T12:49:47.852Z,47.60
2022-11-30T12:52:29.117Z,45.85
2022-11-30T12:55:13.170Z,45.62
2022-11-30T12:57:49.470Z,46.53
2022-11-30T13:00:22.681Z,49.48
2022-11-30T13:02:59.039Z,47.98
2022-11-30T13:05:42.676Z,48.63
2022-11-30T13:08:51.555Z,48.56
2022-11-30T13:11:39.665Z,50.64
2022-11-30T13:14:21.672Z,48.23
2022-11-30T13:16:55.238Z,48.08
2022-11-30T13:19:37.215Z,52.19
2022-11-30T13:22:12.801Z,50.42
2022-11-30T13:24:48.126Z,50.28
2022-11-30T13:27:23.160Z,51.71
2022-11-30T13:30:35.268Z,49.76
2022-11-30T13:33:40.012Z,49.26
2022-11-30T13:36:31.167Z,48.31
2022-11-30T13:39:10.746Z,47.43
2022-11-30T13:41:38.669Z,48.55
2022-11-30T13:44:06.773Z,47.51
2022-11-30T13:46:35.066Z,48.46
2022-11-30T13:49:23.156Z,49.29
2022-11-30T13:52:20.089Z,48.30
2022-11-30T13:54:48.686Z,49.76
2022-11-30T13:57:25.325Z,50.50
2022-11-30T13:59:54.929Z,52.70
2022-11-30T14:05:33.221Z,49.80
2022-11-30T14:08:03.694Z,49.08
2022-11-30T14:10:32.632Z,49.12
2022-11-30T14:13:10.747Z,49.58
2022-11-30T14:15:42.167Z,49.73
2022-11-30T14:18:09.538Z,48.14
2022-11-30T14:20:49.975Z,48.85
2022-11-30T14:23:40.563Z,50.08
2022-11-30T14:26:17.459Z,49.20
2022-11-30T14:29:19.090Z,50.34
2022-11-30T14:31:59.258Z,54.02
2022-11-30T14:34:36.892Z,54.09
2022-11-30T14:37:15.355Z,54.59
2022-11-30T14:39:46.526Z,53.55
2022-11-30T14:42:26.363Z,54.21
2022-11-30T14:44:55.147Z,53.70
2022-11-30T14:47:34.683Z,56.83
2022-11-30T14:50:06.153Z,57.05
2022-11-30T14:52:52.082Z,57.81
2022-11-30T14:55:29.072Z,56.82
2022-11-30T14:57:56.462Z,55.72
2022-11-30T15:00:23.939Z,55.79
2022-11-30T15:02:51.726Z,53.48
2022-11-30T15:05:28.582Z,53.49
2022-11-30T15:07:56.233Z,56.11
2022-11-30T15:10:34.477Z,57.27
2022-11-30T15:13:02.879Z,59.09
2022-11-30T15:15:31.655Z,63.40
2022-11-30T15:18:10.622Z,65.92
2022-11-30T15:21:01.210Z,65.31
2022-11-30T15:23:29.052Z,65.34
2022-11-30T15:26:01.777Z,65.25
2022-11-30T15:28:38.242Z,65.80
2022-11-30T15:31:09.310Z,65.49
2022-11-30T15:33:46.540Z,64.44
2022-11-30T15:36:31.458Z,65.13
2022-11-30T15:39:06.586Z,61.38
2022-11-30T15:41:35.357Z,59.00
2022-11-30T15:44:02.914Z,56.76
2022-11-30T15:46:41.196Z,55.68
2022-11-30T15:49:13.458Z,52.74
2022-11-30T15:51:43.982Z,53.76
2022-11-30T15:54:11.699Z,53.01
2022-11-30T15:56:39.191Z,54.23
2022-11-30T15:59:20.046Z,53.21
2022-11-30T16:02:14.735Z,50.14
2022-11-30T16:04:57.563Z,48.71
2022-11-30T16:07:28.650Z,52.11
2022-11-30T16:10:24.868Z,54.14
2022-11-30T16:12:54.328Z,53.11
2022-11-30T16:15:30.823Z,51.68
2022-11-30T16:18:19.391Z,50.23
2022-11-30T16:20:52.652Z,49.44
2022-11-30T16:23:22.299Z,48.97
2022-11-30T16:25:51.301Z,47.84
2022-11-30T16:28:20.493Z,47.89
2022-11-30T16:30:49.194Z,48.34
2022-11-30T16:33:25.677Z,48.77
2022-11-30T16:36:00.493Z,47.58
2022-11-30T16:38:29.365Z,47.17
2022-11-30T16:41:17.638Z,47.70
2022-11-30T16:43:46.665Z,47.76
2022-11-30T16:46:17.879Z,47.08
2022-11-30T16:48:49.417Z,46.98
2022-11-30T16:51:24.675Z,47.06
2022-11-30T16:53:52.862Z,46.34
2022-11-30T16:56:35.702Z,46.58
2022-11-30T16:59:03.453Z,46.93
2022-11-30T17:01:46.671Z,46.48
2022-11-30T17:04:23.138Z,46.96
2022-11-30T17:06:54.692Z,46.71
2022-11-30T17:09:58.760Z,47.16
2022-11-30T17:12:46.987Z,47.39
2022-11-30T17:15:29.950Z,47.21
2022-11-30T17:18:09.768Z,46.33
2022-11-30T17:20:49.716Z,47.03
2022-11-30T17:23:22.919Z,46.43
2022-11-30T17:25:50.905Z,46.76
2022-11-30T17:28:18.420Z,47.11
2022-11-30T17:31:13.748Z,46.94
2022-11-30T17:33:47.778Z,46.58
2022-11-30T17:36:34.219Z,47.27
2022-11-30T17:39:07.354Z,48.07
2022-11-30T17:42:07.925Z,47.00
2022-11-30T17:44:58.915Z,48.38
2022-11-30T17:48:00.265Z,47.40
2022-11-30T17:50:33.650Z,46.71
2022-11-30T17:53:18.283Z,46.97
2022-11-30T17:55:53.041Z,47.56
2022-11-30T17:58:35.292Z,47.03
2022-11-30T18:01:13.060Z,47.64
2022-11-30T18:03:40.736Z,47.84
2022-11-30T18:07:13.513Z,48.81
2022-11-30T18:09:59.913Z,47.12
2022-11-30T18:12:37.278Z,47.31
2022-11-30T18:15:06.586Z,47.14
2022-11-30T18:17:34.958Z,46.79
2022-11-30T18:20:20.819Z,47.37
2022-11-30T18:23:00.192Z,47.15
2022-11-30T18:25:59.404Z,46.97
2022-11-30T18:28:36.213Z,47.75
2022-11-30T18:31:26.953Z,47.28
2022-11-30T18:34:12.665Z,47.43
2022-11-30T18:37:22.570Z,47.93
2022-11-30T18:40:21.034Z,48.40
2022-11-30T18:43:09.133Z,48.21
2022-11-30T18:46:00.721Z,48.11
2022-11-30T18:48:43.686Z,49.03
2022-11-30T18:51:32.436Z,48.63
2022-11-30T18:54:13.931Z,47.88
2022-11-30T18:57:08.362Z,47.87
2022-11-30T19:00:24.293Z,48.24
2022-11-30T19:03:04.143Z,46.91
2022-11-30T19:05:44.370Z,47.31
2022-11-30T19:08:23.729Z,47.96
2022-11-30T19:10:54.044Z,46.51
2022-11-30T19:16:39.259Z,46.82
2022-11-30T19:19:08.986Z,46.74
2022-11-30T19:21:36.700Z,47.11
2022-11-30T19:24:27.569Z,47.40
2022-11-30T19:27:01.222Z,47.01
2022-11-30T19:29:40.718Z,47.20
2022-11-30T19:32:10.829Z,46.92
2022-11-30T19:34:47.700Z,47.59
2022-11-30T19:37:45.378Z,46.56
2022-11-30T19:40:33.837Z,47.01
2022-11-30T19:43:13.185Z,47.12
2022-11-30T19:45:49.858Z,47.05
2022-11-30T19:48:26.445Z,46.96
2022-11-30T19:50:54.305Z,47.34
2022-11-30T19:53:28.790Z,46.66
2022-11-30T19:55:56.394Z,46.66
2022-11-30T19:58:33.981Z,47.28
2022-11-30T20:01:07.972Z,46.52
2022-11-30T20:03:57.477Z,46.81
2022-11-30T20:06:52.581Z,47.03
2022-11-30T20:09:25.675Z,46.76
2022-11-30T20:12:09.364Z,46.87
2022-11-30T20:15:10.402Z,47.36
2022-11-30T20:17:47.159Z,46.38
2022-11-30T20:20:44.510Z,46.93
2022-11-30T20:23:30.149Z,46.77
2022-11-30T20:26:00.312Z,46.84
2022-11-30T20:29:15.789Z,46.42
2022-11-30T20:31:54.901Z,46.55
2022-11-30T20:34:22.477Z,46.60
2022-11-30T20:37:57.957Z,47.16
2022-11-30T20:41:05.777Z,47.55
2022-11-30T20:43:52.026Z,47.95
2022-11-30T20:46:43.051Z,47.61
2022-11-30T20:49:43.456Z,47.49
2022-11-30T20:52:41.140Z,47.58
2022-11-30T20:55:57.146Z,47.27
2022-11-30T20:58:31.094Z,47.17
2022-11-30T21:01:24.924Z,47.02
2022-11-30T21:04:04.877Z,47.25
2022-11-30T21:10:31.750Z,47.46
2022-11-30T21:13:26.430Z,47.42
2022-11-30T21:16:12.073Z,47.07
2022-11-30T21:18:55.382Z,47.59
2022-11-30T21:21:46.968Z,47.80
2022-11-30T21:24:48.237Z,47.52
2022-11-30T21:27:33.683Z,47.05
2022-11-30T21:30:22.975Z,47.57
2022-11-30T21:36:13.924Z,47.84
2022-11-30T21:38:44.612Z,47.39
2022-11-30T21:41:24.243Z,47.59
2022-11-30T21:43:57.756Z,46.99
2022-11-30T21:46:55.933Z,47.14
2022-11-30T21:49:47.266Z,47.03
2022-11-30T21:52:23.114Z,46.24
2022-11-30T21:55:21.073Z,47.09
2022-11-30T21:58:24.107Z,46.40
2022-11-30T22:01:16.116Z,46.86
2022-11-30T22:04:02.387Z,47.12
2022-11-30T22:06:44.978Z,47.38
2022-11-30T22:09:17.196Z,46.72
2022-11-30T22:11:55.737Z,46.95
2022-11-30T22:14:34.842Z,46.80
2022-11-30T22:20:49.118Z,46.24
2022-11-30T22:23:25.566Z,46.88
2022-11-30T22:25:55.696Z,46.50
2022-11-30T22:28:29.192Z,46.31
2022-11-30T22:31:05.709Z,46.93
2022-11-30T22:33:40.410Z,46.08
2022-11-30T22:36:24.142Z,46.46
2022-11-30T22:39:22.403Z,46.18
2022-11-30T22:42:26.117Z,46.95
2022-11-30T22:45:14.518Z,46.41
2022-11-30T22:47:51.065Z,47.40
2022-11-30T22:50:54.429Z,46.40
2022-11-30T22:54:11.507Z,46.30
2022-11-30T22:56:59.716Z,46.46
2022-11-30T22:59:33.124Z,47.20
2022-11-30T23:02:27.381Z,46.84
2022-11-30T23:05:21.916Z,46.30
2022-11-30T23:08:29.229Z,46.34
2022-11-30T23:11:34.542Z,47.07
2022-11-30T23:14:06.502Z,45.92
2022-11-30T23:17:04.558Z,47.01
2022-11-30T23:19:47.417Z,46.72
2022-11-30T23:22:38.657Z,46.17
2022-11-30T23:25:26.822Z,46.28
2022-11-30T23:27:57.071Z,46.24
2022-11-30T23:30:35.987Z,46.53
2022-11-30T23:33:27.551Z,46.69
2022-11-30T23:36:25.510Z,46.63
2022-11-30T23:39:13.736Z,46.74
2022-11-30T23:42:05.565Z,46.44
2022-11-30T23:45:08.995Z,46.40
2022-11-30T23:48:03.435Z,46.68
2022-11-30T23:50:42.547Z,46.14
2022-11-30T23:53:24.539Z,46.38
2022-11-30T23:56:15.685Z,46.78
2022-11-30T23:58:43.421Z,46.08
